ADDS METAR Data INFO
IDs: Format: Raw Decoded Include TAF

Data at: 0717 UTC 19 Oct 2017

KMZH 190713Z AUTO 00000KT 10SM 05/M03 A2994 RMK AO2
KMZH 190656Z AUTO 00000KT A2993 RMK AO2 PWINO
KMZH 190601Z AUTO 23006KT 10SM CLR 08/M04 A2992 RMK AO2
KMZH 190555Z AUTO 23004KT 10SM CLR 08/M05 A2991 RMK AO2
KMZH 190535Z AUTO 23005KT 10SM CLR 08/M05 A2992 RMK AO2
KMZH 190515Z AUTO 24005KT 10SM CLR 09/M05 A2991 RMK AO2
KMZH 190455Z AUTO 24005KT 10SM CLR 09/M05 A2991 RMK AO2
KMZH 190435Z AUTO 23005KT 10SM CLR 08/M06 A2991 RMK AO2
KMZH 190415Z AUTO 23005KT 10SM CLR 09/M06 A2990 RMK AO2
KMZH 190355Z AUTO 25006KT 10SM CLR 10/M07 A2990 RMK AO2
KMZH 190335Z AUTO 25005KT 10SM CLR 10/M07 A2989 RMK AO2
KMZH 190315Z AUTO 24006KT 10SM CLR 10/M07 A2989 RMK AO2
KMZH 190255Z AUTO 24006KT 10SM CLR 10/M07 A2988 RMK AO2
KMZH 190235Z AUTO 25007KT 10SM CLR 11/M06 A2988 RMK AO2
KMZH 190215Z AUTO 26007KT 10SM CLR 11/M06 A2988 RMK AO2
KMZH 190155Z AUTO 25007KT 10SM CLR 11/M05 A2987 RMK AO2
KMZH 190135Z AUTO 25009KT 10SM CLR 11/M04 A2986 RMK AO2
KMZH 190115Z AUTO 24007KT 10SM CLR 11/M05 A2985 RMK AO2
KMZH 190055Z AUTO 25006KT 10SM CLR 13/M05 A2984 RMK AO2
KMZH 190035Z AUTO 25009KT 10SM CLR 13/M05 A2984 RMK AO2
KMZH 190015Z AUTO 26008KT 10SM CLR 13/M05 A2984 RMK AO2
KMZH 182355Z AUTO 26007KT 10SM CLR 13/M05 A2982 RMK AO2
KMZH 182335Z AUTO 25006KT 10SM CLR 14/M05 A2981 RMK AO2
KMZH 182315Z AUTO 26008KT 10SM CLR 15/M05 A2980 RMK AO2
KMZH 182255Z AUTO 26006KT 10SM CLR 15/M05 A2980 RMK AO2
KMZH 182235Z AUTO 28011G18KT 10SM CLR 16/M05 A2979 RMK AO2
KMZH 182215Z AUTO 28008G19KT 242V332 10SM CLR 17/M05 A2977 RMK AO2
KMZH 182155Z AUTO 27010G15KT 242V302 10SM CLR 18/M04 A2977 RMK AO2
KMZH 182135Z AUTO 28010G17KT 10SM CLR 18/M04 A2976 RMK AO2
KMZH 182115Z AUTO 29014G23KT 10SM CLR 19/M04 A2976 RMK AO2
KMZH 182055Z AUTO 29010G20KT 10SM CLR 19/M02 A2974 RMK AO2
KMZH 182035Z AUTO 27014G22KT 252V312 10SM CLR 20/M03 A2974 RMK AO2
KMZH 182014Z AUTO 27014G22KT 10SM CLR 20/M01 A2973 RMK AO2
KMZH 181955Z AUTO 27010G19KT 232V292 10SM CLR 21/01 A2972 RMK AO2
KMZH 181935Z AUTO 27012G18KT 10SM CLR 21/02 A2972 RMK AO2
KMZH 181916Z AUTO 27009G17KT 252V322 10SM CLR 21/04 A2972 RMK AO2
KMZH 181855Z AUTO 25008KT 242V302 10SM CLR 20/05 A2973 RMK AO2
KMZH 181835Z AUTO 25010G15KT 10SM CLR 19/04 A2973 RMK AO2
KMZH 181815Z AUTO 24010KT 10SM CLR 18/04 A2973 RMK AO2
KMZH 181755Z AUTO 24009G14KT 10SM CLR 18/05 A2973 RMK AO2
KMZH 181735Z AUTO 24008KT 10SM CLR 18/06 A2972 RMK AO2
KMZH 181715Z AUTO 22007KT 10SM CLR 17/07 A2973 RMK AO2
KMZH 181655Z AUTO 22009KT 10SM CLR 16/07 A2973 RMK AO2
KMZH 181636Z AUTO 21008KT 10SM CLR 15/07 A2972 RMK AO2
KMZH 181615Z AUTO 21010KT 10SM CLR 14/07 A2973 RMK AO2
KMZH 181555Z AUTO 21007KT 10SM CLR 14/07 A2973 RMK AO2
KMZH 181536Z AUTO 21012KT 10SM CLR 14/07 A2972 RMK AO2
KMZH 181515Z AUTO 22011G17KT 10SM CLR 13/07 A2973 RMK AO2
KMZH 181455Z AUTO 24007G16KT 232V292 10SM CLR 13/07 A2974 RMK AO2
KMZH 181436Z AUTO 20010G15KT 10SM CLR 12/07 A2969 RMK AO2
KMZH 181415Z AUTO 20009G15KT 10SM CLR 12/07 A2970 RMK AO2
KMZH 181355Z AUTO 20009KT 172V232 10SM CLR 11/06 A2971 RMK AO2
KMZH 181336Z AUTO 20007KT 152V222 10SM CLR 10/06 A2970 RMK AO2
KMZH 181315Z AUTO 19006KT 10SM CLR 09/06 A2971 RMK AO2
KMZH 181255Z AUTO 19004KT 10SM CLR 08/06 A2972 RMK AO2
KMZH 181236Z AUTO 20006KT 10SM CLR 08/06 A2974 RMK AO2
KMZH 181215Z AUTO 20004KT 10SM CLR 08/06 A2973 RMK AO2
KMZH 181155Z AUTO 20005KT 10SM CLR 08/06 A2974 RMK AO2
KMZH 181136Z AUTO 20005KT 10SM CLR 08/06 A2974 RMK AO2
KMZH 181115Z AUTO 00000KT 10SM CLR 08/05 A2975 RMK AO2
KMZH 181055Z AUTO 00000KT 10SM CLR 08/05 A2975 RMK AO2
KMZH 181036Z AUTO 00000KT 10SM CLR 08/05 A2977 RMK AO2
KMZH 181015Z AUTO 00000KT 10SM CLR 08/05 A2977 RMK AO2
KMZH 180955Z AUTO 22004KT 10SM CLR 08/05 A2979 RMK AO2
KMZH 180936Z AUTO 22004KT 10SM CLR 09/05 A2979 RMK AO2
KMZH 180915Z AUTO 21005KT 10SM CLR 10/05 A2979 RMK AO2
KMZH 180855Z AUTO 21003KT 10SM CLR 10/05 A2979 RMK AO2
KMZH 180836Z AUTO 00000KT 10SM CLR 10/05 A2979 RMK AO2
KMZH 180815Z AUTO 00000KT 10SM CLR 10/05 A2979 RMK AO2
KMZH 180755Z AUTO 00000KT 10SM CLR 10/05 A2979 RMK AO2
KMZH 180736Z AUTO 00000KT 10SM CLR 10/05 A2980 RMK AO2
KMZH 180715Z AUTO 20003KT 10SM CLR 10/05 A2979 RMK AO2
KMZH 180655Z AUTO 00000KT 10SM CLR 10/05 A2980 RMK AO2
KMZH 180636Z AUTO 00000KT 10SM SCT110 10/05 A2980 RMK AO2
KMZH 180615Z AUTO 00000KT 10SM CLR 10/05 A2981 RMK AO2
KMZH 180555Z AUTO 19004KT 10SM CLR 11/05 A2981 RMK AO2
KMZH 180535Z AUTO 20006KT 10SM CLR 11/05 A2981 RMK AO2
KMZH 180515Z AUTO 19005KT 10SM CLR 11/05 A2981 RMK AO2
KMZH 180456Z AUTO 19005KT 10SM CLR 11/05 A2982 RMK AO2
KMZH 180435Z AUTO 00000KT 10SM CLR 11/05 A2983 RMK AO2
KMZH 180415Z AUTO 00000KT 10SM CLR 08/05 A2983 RMK AO2
KMZH 180356Z AUTO 00000KT 10SM CLR 08/04 A2983 RMK AO2
KMZH 180335Z AUTO 00000KT 10SM CLR 08/04 A2983 RMK AO2
KMZH 180315Z AUTO 00000KT 10SM CLR 10/05 A2984 RMK AO2
KMZH 180256Z AUTO 00000KT 10SM CLR 10/05 A2984 RMK AO2
KMZH 180235Z AUTO 00000KT 10SM CLR 10/04 A2984 RMK AO2
KMZH 180215Z AUTO 00000KT 10SM CLR 11/04 A2984 RMK AO2
KMZH 180156Z AUTO 24003KT 10SM CLR 11/04 A2985 RMK AO2
KMZH 180135Z AUTO 22003KT 10SM CLR 10/04 A2985 RMK AO2
KMZH 180115Z AUTO 00000KT 10SM CLR 11/04 A2986 RMK AO2
KMZH 180056Z AUTO 00000KT 10SM CLR 11/04 A2986 RMK AO2
KMZH 180035Z AUTO 00000KT 10SM CLR 12/05 A2986 RMK AO2
KMZH 180015Z AUTO 00000KT 10SM CLR 13/05 A2987 RMK AO2
KMZH 172356Z AUTO 00000KT 10SM CLR 15/05 A2987 RMK AO2
KMZH 172335Z AUTO 00000KT 10SM CLR 15/05 A2987 RMK AO2
KMZH 172315Z AUTO 00000KT 10SM CLR 17/05 A2987 RMK AO2
KMZH 172256Z AUTO 18003KT 10SM CLR 18/03 A2987 RMK AO2
KMZH 172235Z AUTO 20004KT 10SM CLR 18/03 A2987 RMK AO2
KMZH 172215Z AUTO 20006KT 10SM CLR 21/05 A2987 RMK AO2
KMZH 172156Z AUTO 19004KT 10SM CLR 21/06 A2987 RMK AO2
KMZH 172135Z AUTO 20006KT 10SM CLR 21/05 A2987 RMK AO2
KMZH 172115Z AUTO 18006KT 10SM CLR 21/05 A2988 RMK AO2
KMZH 172056Z AUTO 21008KT 10SM CLR 21/05 A2988 RMK AO2
KMZH 172035Z AUTO 21006KT 10SM CLR 21/05 A2989 RMK AO2
KMZH 172015Z AUTO 21008KT 10SM CLR 21/05 A2989 RMK AO2
KMZH 171956Z AUTO 22008G15KT 192V252 10SM CLR 21/05 A2990 RMK AO2
KMZH 171935Z AUTO 21006KT 10SM CLR 20/04 A2991 RMK AO2